Calumet, MN (55716)

7:10 AM CDT on July 28, 2016 (GMT -0500)
Grand Rapids | | Change Station

Elev 1293 ft 47.24 °N, 93.49 °W | Updated 13 minutes ago

Fog
Fog
58.1 °F
Feels Like 58.1 °F
N
1.2
Wind Variable Wind from North
Gusts 2.2 mph

Today
High -- | Low -- °F
--% Chance of Precip.
Yesterday
High -- | Low -- °F
Precip. -- in
Pressure 30.11 in
Visibility 0.2 miles
Clouds Overcast 100 ft
Dew Point 56 °F
Humidity 92%
Rainfall 0.00 in
Snow Depth Not available.
5:47 AM 8:51 PM
Waning Crescent, 33% visible
METAR KGPZ 281156Z AUTO 35003KT M1/4SM FG OVC001 15/15 A3011 RMK AO2 SLP195 70038 T01500150 10156 20133 53006
Pressure 30.11 in
Visibility 0.2 miles
Clouds Overcast 100 ft
Dew Point 56 °F
Humidity 92%
Rainfall 0.00 in
Snow Depth Not available.
5:47 AM 8:51 PM
Waning Crescent, 33% visible
METAR KGPZ 281156Z AUTO 35003KT M1/4SM FG OVC001 15/15 A3011 RMK AO2 SLP195 70038 T01500150 10156 20133 53006

10-Day Weather Forecast

Almanac

Astronomy

Jul. 28, 2016 Rise Set
Actual Time
Civil Twilight
Nautical Twilight
Astronomical Twilight
Moon
Length of Visible Light
Length of Day
Tomorrow will be .
, % of the Moon is Illuminated

Today's Extremes

State Highs State Lows

Community

WunderPhotos

Upload Photos

1,928,098 photos uploaded!

WunderBlog® & News

Nearby

Air Quality

  Air Quality AQ Index Pollutant
Not available.

Snow Depth

Station Depth Elevation

Earthquake Activity

City Distance Mag. Time & Date
Minimum magnitude displayed is 2.5.

Coastal Water Temperatures

Place Temperature

Stations

Nearby Weather Stations

Station Location Temp. Windchill Dew Point Humidity Wind Precip. Elev Updated Type
                   

Watches & Warnings

There are currently no watches in effect.